Time;durP1;ratioP1;P1;durP2;ratioP2;P2;SDS_P1;SDS_P2;PMS_P1;PMS_P2;Temp;Humidity;BMP_temperature;BMP_pressure;BME280_temperature;BME280_humidity;BME280_pressure;Samples;Min_cycle;Max_cycle;Signal;HPM_P1;HPM_P2
2021/05/21 00:00:31;;;;;;;;;;;;;;;21.25;51.64;100022.03;1737359;82;20276;-77
2021/05/21 00:03:01;;;;;;;;;;;;;;;21.25;51.65;100013.86;1737442;82;20190;-77
2021/05/21 00:05:28;;;;;;;;;;;;;;;21.24;51.76;100010.84;1737406;82;20158;-77
2021/05/21 00:07:54;;;;;;;;;;;;;;;21.27;51.72;100012.28;1737405;81;20236;-77
2021/05/21 00:10:20;;;;;;;;;;;;;;;21.28;51.62;100018.02;1737477;81;20150;-77
2021/05/21 00:12:47;;;;;;;;;;;;;;;21.29;51.53;100015.58;1737385;81;20226;-77
2021/05/21 00:15:14;;;;;;;;;;;;;;;21.28;51.54;100019.38;1737245;81;20218;-76
2021/05/21 00:17:40;;;;;;;;;;;;;;;21.26;51.55;100022.35;1737287;81;20182;-77
2021/05/21 00:20:16;;;;;;;;;;;;;;;21.23;51.59;100016.55;1737273;82;20546;-77
2021/05/21 00:22:39;;;;;;;;;;;;;;;21.21;51.60;100016.80;1735551;82;20166;-77
2021/05/21 00:25:07;;;;;;;;;;;;;;;21.21;51.69;100018.66;1737539;81;20158;-76
2021/05/21 00:27:33;;;;;;;;;;;;;;;21.21;51.78;100024.11;1740173;82;20529;-77
2021/05/21 00:29:59;;;;;;;;;;;;;;;21.22;51.80;100023.89;1718966;82;20185;-77
2021/05/21 00:32:27;;;;;;;;;;;;;;;21.22;51.74;100023.89;1719362;82;20331;-77
2021/05/21 00:34:53;;;;;;;;;;;;;;;21.23;51.70;100023.36;1740556;82;20208;-77
2021/05/21 00:37:19;;;;;;;;;;;;;;;21.26;51.61;100022.89;1740692;81;20252;-76
2021/05/21 00:39:48;;;;;;;;;;;;;;;21.26;51.62;100025.08;1740557;81;20179;-77
2021/05/21 00:42:14;;;;;;;;;;;;;;;21.25;51.55;100019.30;1740639;81;20234;-76
2021/05/21 00:44:40;;;;;;;;;;;;;;;21.26;51.58;100022.35;1740729;81;20596;-77
2021/05/21 00:47:06;;;;;;;;;;;;;;;21.25;51.64;100018.48;1740691;82;20229;-77
2021/05/21 00:49:33;;;;;;;;;;;;;;;21.26;51.56;100016.91;1740624;81;20158;-77
2021/05/21 00:52:04;;;;;;;;;;;;;;;21.28;51.60;100017.48;1740737;81;20158;-77
2021/05/21 00:54:30;;;;;;;;;;;;;;;21.31;51.54;100015.36;1719854;82;20142;-77
2021/05/21 00:56:56;;;;;;;;;;;;;;;21.29;51.47;100016.94;1712468;83;20213;-77
2021/05/21 00:59:22;;;;;;;;;;;;;;;21.31;51.49;100015.36;1720531;83;20171;-77
2021/05/21 01:01:48;;;;;;;;;;;;;;;21.31;51.49;100023.03;1720432;83;20692;-77
2021/05/21 01:04:14;;;;;;;;;;;;;;;21.29;51.49;100016.41;1708610;83;20153;-77
2021/05/21 01:06:40;;;;;;;;;;;;;;;21.46;51.03;100011.08;1720719;83;20260;-77
2021/05/21 01:09:07;;;;;;;;;;;;;;;21.29;51.42;100014.22;1720525;83;20182;-76
2021/05/21 01:11:33;;;;;;;;;;;;;;;21.26;51.48;100014.18;1708332;83;20292;-77
2021/05/21 01:14:01;;;;;;;;;;;;;;;21.24;51.49;100016.83;1720375;83;20202;-76
2021/05/21 01:16:29;;;;;;;;;;;;;;;21.24;51.54;100021.74;1720541;82;20155;-76
2021/05/21 01:19:04;;;;;;;;;;;;;;;21.17;51.69;100013.42;1707898;83;20162;-76
2021/05/21 01:21:25;;;;;;;;;;;;;;;21.39;51.18;100013.13;1719891;82;20178;-76
2021/05/21 01:23:52;;;;;;;;;;;;;;;21.17;51.69;100012.89;1720382;83;20158;-76
2021/05/21 01:26:19;;;;;;;;;;;;;;;21.17;51.71;100007.98;1726846;82;20284;-75
2021/05/21 01:28:45;;;;;;;;;;;;;;;21.21;51.56;100013.22;1738731;81;20504;-76
2021/05/21 01:31:12;;;;;;;;;;;;;;;21.21;51.53;100010.48;1735802;82;20162;-76
2021/05/21 01:33:38;;;;;;;;;;;;;;;21.17;51.60;100014.25;1736001;82;20433;-76
2021/05/21 01:36:04;;;;;;;;;;;;;;;21.13;51.69;100015.79;1735826;82;20229;-76
2021/05/21 01:38:30;;;;;;;;;;;;;;;21.09;51.74;100013.78;1735846;82;20142;-76
2021/05/21 01:40:57;;;;;;;;;;;;;;;21.09;51.79;100017.33;1735886;82;20233;-77
2021/05/21 01:43:23;;;;;;;;;;;;;;;21.07;51.88;100012.64;1735778;82;20215;-76
2021/05/21 01:45:50;;;;;;;;;;;;;;;21.10;51.83;100020.88;1735770;82;20170;-76
2021/05/21 01:48:16;;;;;;;;;;;;;;;21.09;51.83;100015.97;1735812;82;20590;-76
2021/05/21 01:50:43;;;;;;;;;;;;;;;21.08;51.77;100016.22;1735999;82;20166;-76
2021/05/21 01:53:08;;;;;;;;;;;;;;;21.07;51.75;100022.70;1735921;82;20214;-76
2021/05/21 01:55:34;;;;;;;;;;;;;;;21.04;51.75;100022.66;1735908;82;20260;-76
2021/05/21 01:58:00;;;;;;;;;;;;;;;21.03;51.69;100019.12;1735843;82;20267;-77
2021/05/21 02:00:26;;;;;;;;;;;;;;;21.02;51.66;100013.89;1735918;82;20214;-77
2021/05/21 02:02:52;;;;;;;;;;;;;;;21.02;51.67;100023.42;1735794;82;20218;-77
2021/05/21 02:05:19;;;;;;;;;;;;;;;21.01;51.39;100024.49;1735950;82;20209;-77
2021/05/21 02:07:47;;;;;;;;;;;;;;;21.01;50.42;100026.67;1736050;82;20138;-75
2021/05/21 02:10:14;;;;;;;;;;;;;;;21.00;49.45;100029.65;1735605;82;20359;-77
2021/05/21 02:12:44;;;;;;;;;;;;;;;21.01;48.82;100036.20;1736053;82;20187;-77
2021/05/21 02:15:11;;;;;;;;;;;;;;;21.00;48.49;100033.73;1736039;82;20222;-77
2021/05/21 02:17:37;;;;;;;;;;;;;;;21.01;48.23;100032.66;1736049;82;20250;-77
2021/05/21 02:20:07;;;;;;;;;;;;;;;21.02;48.06;100039.75;1736044;82;20515;-76
2021/05/21 02:22:33;;;;;;;;;;;;;;;21.01;47.94;100033.48;1735900;82;20193;-76
2021/05/21 02:25:00;;;;;;;;;;;;;;;20.98;47.91;100036.70;1735940;82;20177;-77
2021/05/21 02:27:26;;;;;;;;;;;;;;;20.96;47.90;100043.44;1735781;82;20205;-77
2021/05/21 02:29:53;;;;;;;;;;;;;;;20.95;47.70;100054.03;1735702;82;20242;-77
2021/05/21 02:32:19;;;;;;;;;;;;;;;20.96;47.52;100054.33;1735924;82;20162;-77
2021/05/21 02:34:45;;;;;;;;;;;;;;;20.94;47.28;100055.94;1735828;82;20531;-77
2021/05/21 02:37:13;;;;;;;;;;;;;;;20.93;46.94;100054.25;1735760;82;20159;-77
2021/05/21 02:39:39;;;;;;;;;;;;;;;20.94;46.53;100057.83;1735899;82;20599;-77
2021/05/21 02:42:05;;;;;;;;;;;;;;;20.93;46.26;100057.51;1735785;82;20221;-76
2021/05/21 02:44:32;;;;;;;;;;;;;;;20.91;46.07;100055.57;1735777;82;20547;-77
2021/05/21 02:46:57;;;;;;;;;;;;;;;20.90;45.89;100055.28;1755215;81;20232;-76
2021/05/21 02:49:23;;;;;;;;;;;;;;;20.88;45.64;100058.22;1760106;81;20149;-77
2021/05/21 02:51:51;;;;;;;;;;;;;;;20.87;45.67;100055.73;1760319;81;20157;-77
2021/05/21 02:54:17;;;;;;;;;;;;;;;20.85;45.68;100056.48;1760300;81;20553;-76
2021/05/21 02:56:43;;;;;;;;;;;;;;;20.84;45.65;100063.01;1760238;81;20248;-76
2021/05/21 02:59:10;;;;;;;;;;;;;;;20.84;45.63;100068.45;1751544;81;20297;-76
2021/05/21 03:01:35;;;;;;;;;;;;;;;20.83;45.76;100069.52;1743515;82;20269;-76
2021/05/21 03:04:02;;;;;;;;;;;;;;;20.85;45.77;100072.83;1743642;82;20274;-77
2021/05/21 03:06:28;;;;;;;;;;;;;;;20.85;45.82;100080.98;1743673;82;20269;-77
2021/05/21 03:08:55;;;;;;;;;;;;;;;20.85;45.91;100095.96;1737594;81;20230;-77
2021/05/21 03:11:21;;;;;;;;;;;;;;;20.85;45.88;100098.19;1737153;82;20257;-77
2021/05/21 03:13:48;;;;;;;;;;;;;;;20.86;45.89;100101.73;1738933;81;20234;-76
2021/05/21 03:16:14;;;;;;;;;;;;;;;20.85;45.81;100104.98;1718378;82;20170;-76
2021/05/21 03:18:40;;;;;;;;;;;;;;;20.85;45.68;100112.30;1719086;82;20242;-76
2021/05/21 03:21:07;;;;;;;;;;;;;;;20.84;45.60;100113.37;1738722;81;20190;-77
2021/05/21 03:23:32;;;;;;;;;;;;;;;20.83;45.72;100117.98;1738423;82;20633;-77
2021/05/21 03:25:58;;;;;;;;;;;;;;;20.91;45.55;100123.63;1738510;82;20205;-77
2021/05/21 03:28:24;;;;;;;;;;;;;;;20.84;45.65;100129.16;1738444;82;20209;-77
2021/05/21 03:30:50;;;;;;;;;;;;;;;20.83;45.72;100126.69;1738326;82;20189;-77
2021/05/21 03:33:16;;;;;;;;;;;;;;;20.84;45.86;100134.61;1737816;81;20213;-77
2021/05/21 03:35:43;;;;;;;;;;;;;;;21.02;45.04;100135.89;1738917;82;20222;-77
2021/05/21 03:38:09;;;;;;;;;;;;;;;20.86;45.15;100131.67;1713354;82;20271;-77
2021/05/21 03:40:41;;;;;;;;;;;;;;;20.83;45.16;100136.22;1709308;82;20288;-76
2021/05/21 03:43:08;;;;;;;;;;;;;;;20.87;45.12;100134.69;1721960;82;20241;-76
2021/05/21 03:45:34;;;;;;;;;;;;;;;21.24;44.11;100136.69;1736636;82;20245;-76
2021/05/21 03:48:01;;;;;;;;;;;;;;;20.86;44.42;100131.14;1724633;81;20240;-77
2021/05/21 03:50:28;;;;;;;;;;;;;;;20.80;43.89;100136.67;1730960;82;20260;-77
2021/05/21 03:52:57;;;;;;;;;;;;;;;20.81;43.41;100134.27;1725011;81;20277;-76
2021/05/21 03:55:23;;;;;;;;;;;;;;;20.77;43.11;100140.17;1734134;82;20257;-77
2021/05/21 03:57:48;;;;;;;;;;;;;;;20.71;42.56;100138.39;1733937;82;20229;-76
2021/05/21 04:00:16;;;;;;;;;;;;;;;20.76;41.96;100137.16;1734077;82;20189;-76
2021/05/21 04:02:44;;;;;;;;;;;;;;;20.72;41.96;100140.05;1725303;82;20263;-76
2021/05/21 04:05:11;;;;;;;;;;;;;;;20.70;42.20;100144.88;1723051;81;20662;-77
2021/05/21 04:07:37;;;;;;;;;;;;;;;20.68;42.20;100141.56;1724933;81;21129;-77
2021/05/21 04:10:04;;;;;;;;;;;;;;;20.68;42.40;100142.92;1714859;82;20313;-77
2021/05/21 04:12:30;;;;;;;;;;;;;;;20.68;42.47;100142.10;1718762;81;20263;-76
2021/05/21 04:14:57;;;;;;;;;;;;;;;20.67;42.02;100143.17;1721919;82;20224;-77
2021/05/21 04:17:24;;;;;;;;;;;;;;;20.67;42.00;100137.19;1719700;81;20292;-77
2021/05/21 04:19:51;;;;;;;;;;;;;;;20.69;41.84;100140.50;1725142;82;20181;-76
2021/05/21 04:22:17;;;;;;;;;;;;;;;20.69;41.82;100140.50;1729504;81;20240;-76
2021/05/21 04:24:44;;;;;;;;;;;;;;;20.72;41.78;100143.30;1718730;81;20182;-76
2021/05/21 04:27:10;;;;;;;;;;;;;;;20.75;41.63;100142.81;1721647;82;20523;-76
2021/05/21 04:29:36;;;;;;;;;;;;;;;20.75;41.63;100141.45;1735567;81;20202;-76
2021/05/21 04:32:03;;;;;;;;;;;;;;;20.75;41.61;100146.36;1709068;82;20170;-75
2021/05/21 04:34:29;;;;;;;;;;;;;;;20.78;41.55;100151.35;1729680;81;20168;-75
2021/05/21 04:36:56;;;;;;;;;;;;;;;20.80;41.74;100154.36;1743872;81;20156;-75
2021/05/21 04:39:22;;;;;;;;;;;;;;;20.84;42.01;100146.86;1725254;81;20442;-76
2021/05/21 04:41:48;;;;;;;;;;;;;;;20.92;42.19;100146.53;1722279;82;20150;-77
2021/05/21 04:44:14;;;;;;;;;;;;;;;20.98;42.24;100149.70;1725211;82;20746;-77
2021/05/21 04:46:41;;;;;;;;;;;;;;;21.04;42.18;100149.29;1722399;82;20245;-76
2021/05/21 04:49:07;;;;;;;;;;;;;;;21.20;41.60;100151.30;1728780;81;20284;-76
2021/05/21 04:51:33;;;;;;;;;;;;;;;21.28;41.11;100160.50;1719299;82;20232;-76
2021/05/21 04:54:00;;;;;;;;;;;;;;;21.34;40.99;100162.01;1722412;82;20341;-77
2021/05/21 04:56:26;;;;;;;;;;;;;;;21.39;40.79;100168.94;1727777;82;20255;-78
2021/05/21 04:58:52;;;;;;;;;;;;;;;21.43;40.42;100167.41;1723342;82;20613;-77
2021/05/21 05:01:18;;;;;;;;;;;;;;;21.43;40.34;100166.04;1723098;81;20314;-77
2021/05/21 05:03:45;;;;;;;;;;;;;;;21.47;40.68;100169.95;1724718;81;20246;-76
2021/05/21 05:06:11;;;;;;;;;;;;;;;21.49;40.83;100170.56;1720892;82;20484;-77
2021/05/21 05:08:39;;;;;;;;;;;;;;;21.56;40.55;100165.80;1726388;81;20145;-76
2021/05/21 05:11:05;;;;;;;;;;;;;;;21.63;40.26;100171.16;1726936;81;20148;-76
2021/05/21 05:13:33;;;;;;;;;;;;;;;21.69;40.05;100174.28;1732635;81;20597;-77
2021/05/21 05:15:59;;;;;;;;;;;;;;;21.71;40.04;100175.71;1740859;80;20146;-78
2021/05/21 05:18:32;;;;;;;;;;;;;;;21.74;40.40;100175.22;1727058;81;20144;-76
2021/05/21 05:20:59;;;;;;;;;;;;;;;21.77;40.41;100178.02;1730692;80;20146;-76
2021/05/21 05:23:25;;;;;;;;;;;;;;;21.75;40.23;100178.23;1729984;81;20196;-76
2021/05/21 05:25:58;;;;;;;;;;;;;;;21.77;40.04;100177.47;1730011;80;20241;-77
2021/05/21 05:28:25;;;;;;;;;;;;;;;21.79;39.81;100178.05;1712826;80;20225;-74
2021/05/21 05:30:51;;;;;;;;;;;;;;;21.82;39.88;100177.30;1732601;80;20252;-75
2021/05/21 05:33:17;;;;;;;;;;;;;;;21.85;39.80;100185.01;1734045;80;20149;-75
2021/05/21 05:35:45;;;;;;;;;;;;;;;21.88;39.23;100181.24;1732027;80;20184;-75
2021/05/21 05:38:11;;;;;;;;;;;;;;;21.92;39.34;100184.33;1727692;80;20198;-77
2021/05/21 05:40:38;;;;;;;;;;;;;;;21.89;39.48;100182.92;1736771;80;20169;-76
2021/05/21 05:43:04;;;;;;;;;;;;;;;21.92;39.51;100183.79;1734854;80;20213;-76
2021/05/21 05:45:30;;;;;;;;;;;;;;;21.96;39.56;100184.97;1734285;80;20213;-75
2021/05/21 05:47:57;;;;;;;;;;;;;;;21.99;39.27;100180.41;1735838;80;20209;-76
2021/05/21 05:50:26;;;;;;;;;;;;;;;22.02;38.65;100183.17;1731216;80;20269;-76
2021/05/21 05:52:52;;;;;;;;;;;;;;;22.08;38.38;100182.23;1734733;81;20593;-76
2021/05/21 05:55:19;;;;;;;;;;;;;;;22.16;37.73;100181.87;1684263;80;20185;-77
2021/05/21 05:57:45;;;;;;;;;;;;;;;22.29;36.57;100184.33;1730145;81;20178;-76
2021/05/21 06:00:12;;;;;;;;;;;;;;;22.34;36.53;100176.77;1745728;80;20268;-76
2021/05/21 06:02:39;;;;;;;;;;;;;;;22.43;36.82;100179.95;1732668;81;20197;-76
2021/05/21 06:05:06;;;;;;;;;;;;;;;22.60;36.60;100180.84;1729256;81;20653;-78
2021/05/21 06:07:33;;;;;;;;;;;;;;;22.75;36.08;100178.92;1734794;80;20543;-76
2021/05/21 06:09:59;;;;;;;;;;;;;;;22.92;36.28;100178.99;1733880;81;20242;-76
2021/05/21 06:12:25;;;;;;;;;;;;;;;23.07;35.53;100180.61;1765937;79;20165;-76
2021/05/21 06:14:51;;;;;;;;;;;;;;;23.18;35.10;100188.46;1790418;78;20176;-76
2021/05/21 06:17:19;;;;;;;;;;;;;;;23.35;34.96;100181.64;1795424;78;20222;-76
2021/05/21 06:19:47;;;;;;;;;;;;;;;23.51;34.51;100182.98;1790634;78;20177;-76
2021/05/21 06:22:13;;;;;;;;;;;;;;;23.67;34.71;100186.81;1791052;77;20206;-76
2021/05/21 06:24:44;;;;;;;;;;;;;;;23.88;34.42;100188.45;1794258;78;20677;-76
2021/05/21 06:27:26;;;;;;;;;;;;;;;;;;;;;
2021/05/21 06:29:49;;;;;;;;;;;;;;;24.46;34.18;100191.97;1792172;78;20538;-76
2021/05/21 06:32:15;;;;;;;;;;;;;;;24.62;34.09;100182.03;1790335;78;20173;-76
2021/05/21 06:34:42;;;;;;;;;;;;;;;24.83;33.31;100191.81;1802207;78;20294;-76
2021/05/21 06:37:15;;;;;;;;;;;;;;;24.99;33.21;100190.89;1797794;78;20176;-78
2021/05/21 06:40:07;;;;;;;;;;;;;;;25.11;33.15;100192.92;1797444;78;20217;-79
2021/05/21 06:42:33;;;;;;;;;;;;;;;25.28;33.07;100199.11;1795964;78;20465;-77
2021/05/21 06:45:04;;;;;;;;;;;;;;;25.51;32.85;100197.09;1792192;78;20231;-77
2021/05/21 06:47:32;;;;;;;;;;;;;;;25.80;32.56;100194.31;1764685;79;20161;-78
2021/05/21 06:49:59;;;;;;;;;;;;;;;26.09;32.20;100190.34;1799934;78;20210;-77
2021/05/21 06:52:26;;;;;;;;;;;;;;;26.17;32.12;100186.54;1790319;78;20180;-78
2021/05/21 06:54:52;;;;;;;;;;;;;;;26.29;32.09;100184.38;1759853;79;20231;-78
2021/05/21 06:57:22;;;;;;;;;;;;;;;26.47;32.21;100182.27;1760190;79;20273;-78
2021/05/21 06:59:48;;;;;;;;;;;;;;;26.65;32.13;100186.44;1797740;78;20447;-77
2021/05/21 07:02:15;;;;;;;;;;;;;;;26.87;31.80;100188.96;1801725;78;20177;-77
2021/05/21 07:04:46;;;;;;;;;;;;;;;27.02;31.61;100199.41;1798544;78;20175;-77
2021/05/21 07:07:19;;;;;;;;;;;;;;;27.08;31.77;100184.32;1793307;78;20185;-77
2021/05/21 07:09:54;;;;;;;;;;;;;;;27.28;31.56;100178.28;1792974;78;20217;-78
2021/05/21 07:12:22;;;;;;;;;;;;;;;27.44;31.39;100186.55;1787077;77;20276;-77
2021/05/21 07:14:50;;;;;;;;;;;;;;;27.58;31.60;100189.00;1793721;78;20250;-78
2021/05/21 07:17:19;;;;;;;;;;;;;;;27.76;31.77;100195.88;1796412;78;20161;-78
2021/05/21 07:19:45;;;;;;;;;;;;;;;27.93;31.64;100187.28;1763624;79;20231;-78
2021/05/21 07:22:13;;;;;;;;;;;;;;;28.06;31.39;100190.27;1797349;78;20243;-78
2021/05/21 07:24:39;;;;;;;;;;;;;;;28.19;31.23;100197.11;1791428;78;21029;-77
2021/05/21 07:27:07;;;;;;;;;;;;;;;28.30;30.72;100196.53;1794265;78;20165;-77
2021/05/21 07:29:33;;;;;;;;;;;;;;;28.42;30.51;100197.59;1791389;78;20224;-77
2021/05/21 07:31:59;;;;;;;;;;;;;;;28.50;30.76;100203.34;1791150;78;20224;-77
2021/05/21 07:34:25;;;;;;;;;;;;;;;28.58;30.36;100201.11;1793003;78;20188;-77
2021/05/21 07:36:52;;;;;;;;;;;;;;;28.61;30.35;100209.61;1792452;78;20186;-77
2021/05/21 07:39:23;;;;;;;;;;;;;;;28.66;30.42;100212.36;1794228;78;20349;-77
2021/05/21 07:41:49;;;;;;;;;;;;;;;28.71;29.87;100201.30;1793805;78;20311;-77
2021/05/21 07:44:16;;;;;;;;;;;;;;;28.83;29.75;100212.79;1794608;78;20475;-77
2021/05/21 07:46:51;;;;;;;;;;;;;;;28.93;29.24;100206.37;1793889;78;20260;-79
2021/05/21 07:49:21;;;;;;;;;;;;;;;28.88;28.84;100210.55;1786307;78;20881;-78
2021/05/21 07:51:46;;;;;;;;;;;;;;;28.83;28.51;100214.17;1794748;78;20201;-78
2021/05/21 07:54:11;;;;;;;;;;;;;;;28.81;28.46;100216.40;1797044;78;20874;-78
2021/05/21 07:56:38;;;;;;;;;;;;;;;28.76;28.36;100212.30;1759645;79;20224;-78
2021/05/21 07:59:08;;;;;;;;;;;;;;;28.69;28.00;100223.36;1793257;78;20166;-78
2021/05/21 08:01:33;;;;;;;;;;;;;;;28.64;28.14;100225.59;1794483;78;20201;-78
2021/05/21 08:03:59;;;;;;;;;;;;;;;28.56;27.46;100217.91;1797379;78;20314;-79
2021/05/21 08:06:28;;;;;;;;;;;;;;;28.42;27.20;100218.26;1798733;78;20192;-76
2021/05/21 08:08:57;;;;;;;;;;;;;;;28.29;27.68;100217.72;1796359;78;20175;-76
2021/05/21 08:11:24;;;;;;;;;;;;;;;28.17;27.50;100207.59;1787611;78;20193;-77
2021/05/21 08:13:50;;;;;;;;;;;;;;;28.10;28.03;100215.32;1798419;78;20224;-77
2021/05/21 08:16:17;;;;;;;;;;;;;;;28.09;28.15;100218.36;1796248;78;20204;-77
2021/05/21 08:18:45;;;;;;;;;;;;;;;28.04;27.83;100221.95;1794487;78;20294;-76
2021/05/21 08:21:11;;;;;;;;;;;;;;;27.95;27.51;100220.88;1796085;78;20196;-77
2021/05/21 08:23:38;;;;;;;;;;;;;;;27.81;27.29;100215.95;1794376;78;20214;-76
2021/05/21 08:26:06;;;;;;;;;;;;;;;27.66;26.98;100224.22;1792068;78;20207;-78
2021/05/21 08:28:36;;;;;;;;;;;;;;;27.42;27.42;100223.11;1795722;78;20275;-77
2021/05/21 08:31:03;;;;;;;;;;;;;;;27.22;27.59;100232.20;1797283;78;20261;-77
2021/05/21 08:33:31;;;;;;;;;;;;;;;27.05;27.82;100236.54;1797026;78;20154;-78
2021/05/21 08:36:17;;;;;;;;;;;;;;;;;;;;;
2021/05/21 08:38:49;;;;;;;;;;;;;;;26.81;28.17;100237.05;1783163;78;20167;-76
2021/05/21 08:41:08;;;;;;;;;;;;;;;26.71;28.32;100232.91;1801154;78;20129;-78
2021/05/21 08:43:34;;;;;;;;;;;;;;;26.67;28.72;100235.91;1797838;78;20247;-77
2021/05/21 08:46:00;;;;;;;;;;;;;;;26.65;28.81;100244.95;1762848;78;20222;-76
2021/05/21 08:48:27;;;;;;;;;;;;;;;26.64;28.89;100250.18;1795009;78;20149;-77
2021/05/21 08:50:53;;;;;;;;;;;;;;;26.63;28.78;100242.22;1799988;78;20198;-77
2021/05/21 08:53:22;;;;;;;;;;;;;;;26.62;29.04;100244.14;1795582;78;20188;-78
2021/05/21 08:55:51;;;;;;;;;;;;;;;26.58;29.21;100249.07;1796104;78;20387;-77
2021/05/21 08:58:18;;;;;;;;;;;;;;;26.56;29.21;100252.89;1795023;78;20680;-77
2021/05/21 09:00:44;;;;;;;;;;;;;;;26.55;29.39;100250.42;1800261;78;20188;-77
2021/05/21 09:03:24;;;;;;;;;;;;;;;26.53;29.38;100254.82;1795815;78;20216;-77
2021/05/21 09:08:47;;;;;;;;;;;;;;;26.50;29.49;100242.17;1793205;78;20176;-77
2021/05/21 09:11:30;;;;;;;;;;;;;;;26.48;29.29;100244.34;1793591;78;20193;-77
2021/05/21 09:14:04;;;;;;;;;;;;;;;26.45;29.21;100250.39;1796162;78;20202;-77
2021/05/21 09:16:32;;;;;;;;;;;;;;;26.40;29.06;100244.84;1784956;78;20201;-77
2021/05/21 09:19:03;;;;;;;;;;;;;;;26.37;29.27;100240.70;1793645;78;20161;-77
2021/05/21 09:22:00;;;;;;;;;;;;;;;26.36;29.34;100245.10;1791965;78;20149;-77
2021/05/21 09:24:45;;;;;;;;;;;;;;;26.33;29.11;100241.51;1797674;78;20257;-76
2021/05/21 09:27:12;;;;;;;;;;;;;;;26.29;29.15;100238.47;1797609;78;20168;-76
2021/05/21 09:29:48;;;;;;;;;;;;;;;26.24;29.23;100233.78;1796551;78;20207;-77
2021/05/21 09:32:19;;;;;;;;;;;;;;;26.21;29.35;100235.70;1797181;78;20555;-77
2021/05/21 09:34:49;;;;;;;;;;;;;;;26.18;29.33;100237.59;1795716;78;20301;-77
2021/05/21 09:37:26;;;;;;;;;;;;;;;26.15;29.53;100229.89;1794146;78;20173;-77
2021/05/21 09:40:07;;;;;;;;;;;;;;;26.15;29.54;100242.23;1790684;78;20204;-79
2021/05/21 09:42:48;;;;;;;;;;;;;;;26.15;29.86;100242.80;1799564;78;20172;-76
2021/05/21 09:45:17;;;;;;;;;;;;;;;26.13;29.89;100243.06;1801367;78;20179;-76
2021/05/21 09:47:52;;;;;;;;;;;;;;;26.10;29.90;100248.26;1787190;78;20167;-76
2021/05/21 09:50:18;;;;;;;;;;;;;;;26.07;29.91;100244.11;1790028;78;20494;-77
2021/05/21 09:52:46;;;;;;;;;;;;;;;26.02;29.67;100242.16;1796774;78;20201;-76
2021/05/21 09:55:13;;;;;;;;;;;;;;;25.97;29.50;100238.57;1805650;78;20574;-77
2021/05/21 09:57:39;;;;;;;;;;;;;;;25.90;29.87;100230.59;1784622;78;20160;-77
2021/05/21 10:00:11;;;;;;;;;;;;;;;25.87;30.01;100233.84;1797406;78;20165;-77
2021/05/21 10:02:37;;;;;;;;;;;;;;;25.83;30.09;100233.27;1751456;80;20243;-76
2021/05/21 10:05:05;;;;;;;;;;;;;;;25.77;30.18;100226.38;1751705;80;20174;-76
2021/05/21 10:07:31;;;;;;;;;;;;;;;25.75;30.04;100222.20;1749220;80;20196;-78
2021/05/21 10:09:57;;;;;;;;;;;;;;;25.72;30.32;100229.06;1732008;81;20205;-78
2021/05/21 10:12:24;;;;;;;;;;;;;;;25.74;30.78;100230.16;1747651;80;20230;-78
2021/05/21 10:14:53;;;;;;;;;;;;;;;25.75;30.79;100232.66;1748945;80;20236;-77
2021/05/21 10:17:22;;;;;;;;;;;;;;;25.76;30.73;100233.52;1742557;80;20162;-77
2021/05/21 10:19:49;;;;;;;;;;;;;;;25.76;30.36;100229.41;1750750;80;20152;-77
2021/05/21 10:22:19;;;;;;;;;;;;;;;25.73;30.32;100243.06;1754651;80;20220;-78
2021/05/21 10:24:45;;;;;;;;;;;;;;;25.71;30.12;100245.80;1758727;80;20172;-77
2021/05/21 10:27:18;;;;;;;;;;;;;;;25.61;30.47;100242.95;1744538;80;20235;-78
2021/05/21 10:29:57;;;;;;;;;;;;;;;25.61;30.56;100243.78;1751526;80;20192;-77
2021/05/21 10:32:30;;;;;;;;;;;;;;;25.58;30.88;100240.21;1764335;80;20181;-78
2021/05/21 10:34:57;;;;;;;;;;;;;;;25.53;30.59;100242.92;1716504;81;20203;-78
2021/05/21 10:37:42;;;;;;;;;;;;;;;25.54;30.42;100250.05;1734789;81;20162;-78
2021/05/21 10:40:28;;;;;;;;;;;;;;;25.55;30.19;100245.66;1731265;81;20214;-77
2021/05/21 10:43:17;;;;;;;;;;;;;;;25.55;30.26;100251.70;1730017;81;20270;-77
2021/05/21 10:46:03;;;;;;;;;;;;;;;25.56;30.58;100253.34;1729523;81;20206;-77
2021/05/21 10:48:30;;;;;;;;;;;;;;;25.55;30.63;100253.06;1683900;81;20202;-77
2021/05/21 10:51:11;;;;;;;;;;;;;;;25.58;30.56;100253.92;1735029;81;20198;-77
2021/05/21 10:53:42;;;;;;;;;;;;;;;25.56;30.02;100256.09;1734817;81;20619;-77
2021/05/21 10:56:09;;;;;;;;;;;;;;;25.56;29.91;100258.83;1733462;81;20644;-77
2021/05/21 10:58:43;;;;;;;;;;;;;;;25.54;29.58;100262.39;1711291;81;20584;-76
2021/05/21 11:01:13;;;;;;;;;;;;;;;25.53;29.64;100264.86;1730085;81;20194;-76
2021/05/21 11:04:00;;;;;;;;;;;;;;;25.52;29.93;100267.30;1728393;81;20182;-77
2021/05/21 11:06:35;;;;;;;;;;;;;;;25.52;29.66;100270.03;1725746;81;20293;-76
2021/05/21 11:09:04;;;;;;;;;;;;;;;25.52;29.43;100274.16;1728842;81;20178;-77
2021/05/21 11:11:46;;;;;;;;;;;;;;;25.53;29.91;100282.69;1728347;81;20193;-77
2021/05/21 11:14:28;;;;;;;;;;;;;;;25.55;30.19;100281.87;1709334;82;20173;-76
2021/05/21 11:16:58;;;;;;;;;;;;;;;25.56;30.44;100276.66;1728363;80;20166;-77
2021/05/21 11:19:26;;;;;;;;;;;;;;;25.58;30.14;100282.72;1720568;81;20629;-76
2021/05/21 11:21:55;;;;;;;;;;;;;;;25.58;30.00;100282.72;1727830;81;20208;-76
2021/05/21 11:24:39;;;;;;;;;;;;;;;25.58;29.79;100285.47;1726051;81;20156;-76
2021/05/21 11:27:08;;;;;;;;;;;;;;;25.59;29.77;100280.80;1723381;81;20627;-77
2021/05/21 11:29:34;;;;;;;;;;;;;;;25.59;29.71;100286.30;1723243;81;20645;-77
2021/05/21 11:32:01;;;;;;;;;;;;;;;25.55;29.39;100284.06;1734523;81;20174;-75
2021/05/21 11:34:27;;;;;;;;;;;;;;;25.53;29.32;100288.17;1737377;81;20193;-76
2021/05/21 11:36:55;;;;;;;;;;;;;;;25.49;29.55;100290.60;1737580;81;20530;-78
2021/05/21 11:39:23;;;;;;;;;;;;;;;25.49;29.71;100293.89;1739139;81;20504;-76
2021/05/21 11:41:49;;;;;;;;;;;;;;;25.47;29.81;100290.56;1742839;81;20161;-76
2021/05/21 11:44:16;;;;;;;;;;;;;;;25.44;29.73;100294.67;1732853;81;20249;-76
2021/05/21 11:46:43;;;;;;;;;;;;;;;25.41;29.90;100290.25;1730942;80;20152;-77
2021/05/21 11:49:19;;;;;;;;;;;;;;;25.38;29.88;100292.95;1738680;81;20222;-76
2021/05/21 11:51:41;;;;;;;;;;;;;;;25.34;29.67;100295.92;1727533;81;20186;-76
2021/05/21 11:54:07;;;;;;;;;;;;;;;25.32;29.81;100301.41;1727717;81;20201;-76
2021/05/21 11:56:39;;;;;;;;;;;;;;;25.36;29.71;100292.95;1733948;80;20540;-77
2021/05/21 11:59:07;;;;;;;;;;;;;;;25.30;29.81;100290.70;1723553;81;20193;-76
2021/05/21 12:01:34;;;;;;;;;;;;;;;25.26;29.32;100298.62;1719871;81;20178;-77
2021/05/21 12:04:07;;;;;;;;;;;;;;;25.24;29.48;100290.35;1727910;80;20150;-76
2021/05/21 12:06:33;;;;;;;;;;;;;;;25.23;29.77;100297.75;1722576;82;20197;-77
2021/05/21 12:08:59;;;;;;;;;;;;;;;25.21;29.61;100295.83;1725539;81;20212;-76
2021/05/21 12:11:26;;;;;;;;;;;;;;;25.20;29.48;100292.78;1727478;81;20674;-76
2021/05/21 12:14:03;;;;;;;;;;;;;;;25.21;29.41;100288.98;1728303;81;20233;-77
2021/05/21 12:16:30;;;;;;;;;;;;;;;25.21;29.46;100287.61;1709535;81;20262;-78
2021/05/21 12:18:58;;;;;;;;;;;;;;;25.21;29.21;100293.63;1721790;82;20188;-76
2021/05/21 12:21:27;;;;;;;;;;;;;;;25.19;29.48;100289.76;1722712;81;20176;-77
2021/05/21 12:23:56;;;;;;;;;;;;;;;25.19;29.66;100291.13;1732578;81;20889;-76
2021/05/21 12:26:23;;;;;;;;;;;;;;;25.18;29.66;100297.70;1725219;82;20212;-77
2021/05/21 12:28:49;;;;;;;;;;;;;;;25.16;29.73;100290.81;1723051;81;20226;-77
2021/05/21 12:31:18;;;;;;;;;;;;;;;25.16;29.38;100294.37;1730964;81;20221;-77
2021/05/21 12:33:45;;;;;;;;;;;;;;;25.22;29.38;100302.95;1696565;82;20172;-77
2021/05/21 12:36:14;;;;;;;;;;;;;;;25.12;29.76;100304.75;1724032;82;20161;-75
2021/05/21 12:38:51;;;;;;;;;;;;;;;25.11;29.94;100303.92;1718899;82;20204;-76
2021/05/21 12:41:19;;;;;;;;;;;;;;;25.08;30.30;100310.48;1716977;82;20665;-75
2021/05/21 12:43:46;;;;;;;;;;;;;;;25.07;29.97;100308.23;1719957;82;20617;-76
2021/05/21 12:46:14;;;;;;;;;;;;;;;25.01;30.12;100307.35;1726967;81;20246;-77